Time;durP1;ratioP1;P1;durP2;ratioP2;P2;SDS_P1;SDS_P2;PMS_P1;PMS_P2;Temp;Humidity;BMP_temperature;BMP_pressure;BME280_temperature;BME280_humidity;BME280_pressure;Samples;Min_cycle;Max_cycle;Signal;HPM_P1;HPM_P2
2023/10/21 00:00:57;;;;;;;;;;;;;;;26.96;35.32;100185.50;5065860;28;1910;-43
2023/10/21 00:03:23;;;;;;;;;;;;;;;26.98;35.42;100190.69;5068777;28;2410;-41
2023/10/21 00:05:48;;;;;;;;;;;;;;;26.92;35.13;100188.78;5055072;28;1020;-41
2023/10/21 00:08:14;;;;;;;;;;;;;;;26.89;35.41;100195.44;5037353;28;1398;-41
2023/10/21 00:10:39;;;;;;;;;;;;;;;27.17;34.83;100193.78;5067065;28;837;-43
2023/10/21 00:13:05;;;;;;;;;;;;;;;27.12;35.03;100200.63;5071853;28;1008;-43
2023/10/21 00:15:30;;;;;;;;;;;;;;;27.61;33.91;100200.69;5064767;28;1040;-42
2023/10/21 00:17:56;;;;;;;;;;;;;;;27.69;34.08;100197.03;5056630;28;1232;-42
2023/10/21 00:20:21;;;;;;;;;;;;;;;27.68;33.66;100191.78;5055338;28;1910;-42
2023/10/21 00:22:47;;;;;;;;;;;;;;;27.80;33.67;100189.38;5043277;28;1426;-42
2023/10/21 00:25:12;;;;;;;;;;;;;;;27.75;33.90;100188.13;5044414;28;1104;-42
2023/10/21 00:27:38;;;;;;;;;;;;;;;27.78;33.80;100186.06;5042004;28;1055;-43
2023/10/21 00:30:03;;;;;;;;;;;;;;;27.93;33.46;100189.44;5047467;28;1080;-43
2023/10/21 00:32:29;;;;;;;;;;;;;;;27.91;33.30;100186.09;5052444;28;1092;-42
2023/10/21 00:34:54;;;;;;;;;;;;;;;27.84;33.49;100188.78;5041494;28;2467;-41
2023/10/21 00:37:20;;;;;;;;;;;;;;;27.82;33.76;100187.31;5055289;28;1234;-42
2023/10/21 00:39:46;;;;;;;;;;;;;;;27.85;33.69;100184.22;5049007;28;1910;-43
2023/10/21 00:42:11;;;;;;;;;;;;;;;27.92;33.69;100190.47;5037585;28;1045;-44
2023/10/21 00:44:37;;;;;;;;;;;;;;;27.81;33.91;100181.06;5049183;28;1056;-43
2023/10/21 00:47:03;;;;;;;;;;;;;;;27.89;33.84;100185.47;5044934;28;1024;-43
2023/10/21 00:49:28;;;;;;;;;;;;;;;27.92;33.30;100187.78;5031427;28;1134;-43
2023/10/21 00:51:54;;;;;;;;;;;;;;;27.94;33.80;100180.31;5041348;28;1060;-42
2023/10/21 00:54:19;;;;;;;;;;;;;;;27.86;33.65;100192.09;5040264;28;1143;-43
2023/10/21 00:56:45;;;;;;;;;;;;;;;27.92;33.71;100200.44;5045057;28;1135;-43
2023/10/21 00:59:11;;;;;;;;;;;;;;;27.89;34.25;100193.59;5053605;28;888;-42
2023/10/21 01:01:37;;;;;;;;;;;;;;;27.93;34.18;100192.13;5038275;28;1915;-42
2023/10/21 01:04:04;;;;;;;;;;;;;;;27.89;34.49;100184.63;5021892;28;2388;-43
2023/10/21 01:06:29;;;;;;;;;;;;;;;27.93;34.42;100173.22;5034201;28;997;-42
2023/10/21 01:08:55;;;;;;;;;;;;;;;28.08;34.31;100193.84;5047393;28;1039;-40
2023/10/21 01:11:21;;;;;;;;;;;;;;;28.06;34.79;100190.53;5026421;28;1301;-42
2023/10/21 01:13:48;;;;;;;;;;;;;;;28.00;34.28;100194.88;5047029;28;1064;-43
2023/10/21 01:16:13;;;;;;;;;;;;;;;28.02;34.67;100191.97;5044789;28;1095;-41
2023/10/21 01:18:39;;;;;;;;;;;;;;;28.02;35.15;100195.50;5060316;28;1140;-44
2023/10/21 01:21:05;;;;;;;;;;;;;;;28.08;35.29;100197.38;5073613;28;1914;-42
2023/10/21 01:23:33;;;;;;;;;;;;;;;28.06;34.88;100191.34;5063376;28;821;-41
2023/10/21 01:25:59;;;;;;;;;;;;;;;28.07;35.42;100194.91;5073363;28;1256;-42
2023/10/21 01:28:24;;;;;;;;;;;;;;;28.08;35.30;100191.97;5069064;28;1194;-43
2023/10/21 01:30:50;;;;;;;;;;;;;;;28.03;35.50;100188.25;5071266;28;1107;-42
2023/10/21 01:33:15;;;;;;;;;;;;;;;28.06;35.42;100195.94;5065778;28;1841;-43
2023/10/21 01:35:41;;;;;;;;;;;;;;;28.02;35.91;100187.41;5061060;28;1139;-44
2023/10/21 01:38:06;;;;;;;;;;;;;;;27.98;35.90;100189.66;5068412;28;1027;-39
2023/10/21 01:40:31;;;;;;;;;;;;;;;27.99;36.03;100193.22;5060172;28;1987;-42
2023/10/21 01:42:57;;;;;;;;;;;;;;;28.10;36.04;100194.47;5049434;28;1454;-42
2023/10/21 01:45:23;;;;;;;;;;;;;;;28.13;35.70;100194.06;5060283;28;1059;-42
2023/10/21 01:47:48;;;;;;;;;;;;;;;28.13;35.83;100198.66;5062597;28;1239;-40
2023/10/21 01:50:14;;;;;;;;;;;;;;;28.02;35.98;100200.91;5053176;28;1227;-42
2023/10/21 01:52:40;;;;;;;;;;;;;;;27.94;35.78;100193.81;5067164;28;1144;-40
2023/10/21 01:55:05;;;;;;;;;;;;;;;27.38;36.62;100196.41;5062635;28;1127;-42
2023/10/21 01:57:32;;;;;;;;;;;;;;;27.21;36.65;100195.88;5069492;28;1286;-43
2023/10/21 02:00:01;;;;;;;;;;;;;;;27.16;36.84;100189.44;5040909;28;1973;-42
2023/10/21 02:02:26;;;;;;;;;;;;;;;27.10;37.42;100194.56;5050525;28;1202;-41
2023/10/21 02:04:52;;;;;;;;;;;;;;;27.00;38.05;100192.19;5054300;28;2335;-41
2023/10/21 02:07:17;;;;;;;;;;;;;;;27.08;37.80;100198.50;5050627;28;1054;-41
2023/10/21 02:09:43;;;;;;;;;;;;;;;27.13;37.37;100198.72;5057529;28;1088;-41
2023/10/21 02:12:09;;;;;;;;;;;;;;;27.18;37.30;100192.75;5073059;28;904;-43
2023/10/21 02:14:34;;;;;;;;;;;;;;;27.16;37.43;100198.34;5077577;28;990;-43
2023/10/21 02:17:00;;;;;;;;;;;;;;;27.24;37.51;100194.69;5059150;28;1087;-42
2023/10/21 02:19:25;;;;;;;;;;;;;;;27.11;38.32;100198.13;5045723;28;1147;-42
2023/10/21 02:21:51;;;;;;;;;;;;;;;27.10;38.26;100204.53;5068915;28;1894;-43
2023/10/21 02:24:16;;;;;;;;;;;;;;;27.01;38.77;100199.28;5042176;28;899;-42
2023/10/21 02:26:42;;;;;;;;;;;;;;;27.39;38.59;100205.38;5076874;28;1122;-43
2023/10/21 02:29:07;;;;;;;;;;;;;;;27.12;39.84;100218.69;5057294;28;1070;-43
2023/10/21 02:31:34;;;;;;;;;;;;;;;27.21;39.93;100214.78;5056904;28;1078;-43
2023/10/21 02:34:00;;;;;;;;;;;;;;;27.30;39.58;100218.19;5069960;28;2434;-40
2023/10/21 02:36:25;;;;;;;;;;;;;;;27.32;40.03;100215.28;5047950;28;1201;-42
2023/10/21 02:38:53;;;;;;;;;;;;;;;27.26;39.88;100214.19;5056781;28;1070;-42
2023/10/21 02:41:19;;;;;;;;;;;;;;;27.49;39.63;100221.22;5038729;28;1914;-41
2023/10/21 02:43:45;;;;;;;;;;;;;;;27.46;39.75;100227.03;5069551;28;1062;-43
2023/10/21 02:46:12;;;;;;;;;;;;;;;27.41;39.32;100221.38;5038802;28;1208;-41
2023/10/21 02:48:37;;;;;;;;;;;;;;;27.29;39.22;100224.63;5069443;28;925;-42
2023/10/21 02:51:10;;;;;;;;;;;;;;;27.47;39.22;100232.22;5064280;28;1083;-41
2023/10/21 02:53:35;;;;;;;;;;;;;;;27.41;39.18;100227.59;5074143;28;1078;-43
2023/10/21 02:56:02;;;;;;;;;;;;;;;27.37;39.17;100226.34;5065279;28;1129;-42
2023/10/21 02:58:28;;;;;;;;;;;;;;;27.41;38.94;100226.78;5076273;28;1015;-42
2023/10/21 03:00:54;;;;;;;;;;;;;;;27.53;38.56;100237.88;5065226;28;1906;-42
2023/10/21 03:03:19;;;;;;;;;;;;;;;27.43;38.59;100239.03;5057941;28;1796;-41
2023/10/21 03:05:45;;;;;;;;;;;;;;;27.51;38.49;100236.19;5075994;28;1087;-42
2023/10/21 03:08:10;;;;;;;;;;;;;;;27.60;38.34;100239.56;5073575;28;1031;-42
2023/10/21 03:10:36;;;;;;;;;;;;;;;27.52;37.99;100239.72;5038176;28;1051;-41
2023/10/21 03:13:02;;;;;;;;;;;;;;;27.57;38.47;100239.13;5059827;28;929;-42
2023/10/21 03:15:27;;;;;;;;;;;;;;;27.59;38.02;100232.47;5065392;28;1120;-41
2023/10/21 03:17:53;;;;;;;;;;;;;;;27.59;38.05;100239.78;5073130;28;1140;-43
2023/10/21 03:20:18;;;;;;;;;;;;;;;27.61;37.96;100237.72;5064927;28;1910;-42
2023/10/21 03:22:45;;;;;;;;;;;;;;;27.58;37.73;100235.38;5075562;28;1149;-39
2023/10/21 03:25:11;;;;;;;;;;;;;;;27.56;37.53;100240.16;5038012;28;1019;-41
2023/10/21 03:27:37;;;;;;;;;;;;;;;27.32;38.03;100236.88;5069483;28;1019;-41
2023/10/21 03:30:04;;;;;;;;;;;;;;;27.13;38.95;100236.53;5038081;28;1119;-41
2023/10/21 03:32:30;;;;;;;;;;;;;;;26.87;39.18;100241.50;5058083;28;1024;-42
2023/10/21 03:34:55;;;;;;;;;;;;;;;27.00;38.66;100242.63;5074698;28;2700;-42
2023/10/21 03:37:22;;;;;;;;;;;;;;;27.00;38.57;100246.19;5054227;28;1249;-43
2023/10/21 03:39:48;;;;;;;;;;;;;;;26.97;38.46;100243.88;5057839;28;1973;-41
2023/10/21 03:42:14;;;;;;;;;;;;;;;26.94;38.50;100249.66;5044232;28;1087;-43
2023/10/21 03:44:40;;;;;;;;;;;;;;;26.83;38.53;100251.00;5066361;28;1046;-42
2023/10/21 03:47:05;;;;;;;;;;;;;;;26.92;38.51;100253.56;5069711;28;1203;-42
2023/10/21 03:49:31;;;;;;;;;;;;;;;27.06;37.88;100241.06;5037923;28;1126;-42
2023/10/21 03:51:57;;;;;;;;;;;;;;;26.49;37.85;100242.56;5069196;28;996;-45
2023/10/21 03:54:22;;;;;;;;;;;;;;;26.24;38.48;100240.19;5056174;28;1162;-40
2023/10/21 03:56:48;;;;;;;;;;;;;;;25.60;38.55;100234.38;5057984;28;1090;-41
2023/10/21 03:59:13;;;;;;;;;;;;;;;25.95;37.61;100235.69;5073282;28;1004;-41
2023/10/21 04:01:39;;;;;;;;;;;;;;;26.07;37.05;100238.75;5055767;28;1914;-41
2023/10/21 04:04:05;;;;;;;;;;;;;;;25.60;38.16;100230.84;5055668;28;1805;-42
2023/10/21 04:06:30;;;;;;;;;;;;;;;25.35;38.49;100231.94;5061783;28;1071;-40
2023/10/21 04:08:56;;;;;;;;;;;;;;;25.43;37.99;100233.72;5079805;28;1007;-39
2023/10/21 04:11:21;;;;;;;;;;;;;;;25.44;37.86;100233.53;5078989;28;1086;-42
2023/10/21 04:13:47;;;;;;;;;;;;;;;25.25;38.46;100225.97;5070796;28;1087;-42
2023/10/21 04:16:13;;;;;;;;;;;;;;;25.13;38.49;100225.59;5072549;28;1133;-42
2023/10/21 04:18:38;;;;;;;;;;;;;;;25.46;38.08;100232.53;5058888;28;1021;-43
2023/10/21 04:21:04;;;;;;;;;;;;;;;25.49;37.78;100229.47;5068944;28;1972;-41
2023/10/21 04:23:29;;;;;;;;;;;;;;;25.60;38.06;100226.31;5078400;28;1082;-42
2023/10/21 04:25:55;;;;;;;;;;;;;;;25.31;38.00;100228.78;5061500;28;1031;-40
2023/10/21 04:28:20;;;;;;;;;;;;;;;25.41;37.81;100227.66;5078738;28;1082;-42
2023/10/21 04:30:46;;;;;;;;;;;;;;;25.41;38.06;100228.50;5079336;28;1081;-42
2023/10/21 04:33:12;;;;;;;;;;;;;;;25.10;37.97;100237.56;5076770;28;1845;-39
2023/10/21 04:35:37;;;;;;;;;;;;;;;25.30;37.75;100231.66;5061677;28;1150;-42
2023/10/21 04:38:03;;;;;;;;;;;;;;;25.63;37.31;100241.28;5076864;28;1023;-43
2023/10/21 04:40:29;;;;;;;;;;;;;;;25.28;38.06;100239.06;5059198;28;1975;-42
2023/10/21 04:42:54;;;;;;;;;;;;;;;25.44;37.29;100248.88;5072051;28;1105;-43
2023/10/21 04:45:20;;;;;;;;;;;;;;;25.26;37.93;100244.63;5059089;28;1112;-42
2023/10/21 04:47:45;;;;;;;;;;;;;;;25.18;37.75;100250.09;5074177;28;1092;-42
2023/10/21 04:50:11;;;;;;;;;;;;;;;25.06;38.28;100252.38;5069779;28;1043;-42
2023/10/21 04:52:37;;;;;;;;;;;;;;;25.22;37.66;100253.28;5061762;28;992;-43
2023/10/21 04:55:03;;;;;;;;;;;;;;;25.25;37.70;100256.44;5064603;28;1096;-43
2023/10/21 04:57:29;;;;;;;;;;;;;;;25.35;37.37;100258.88;5058560;28;1124;-43
2023/10/21 04:59:54;;;;;;;;;;;;;;;25.30;37.41;100254.03;5070092;28;1914;-44
2023/10/21 05:02:20;;;;;;;;;;;;;;;25.30;37.79;100263.97;5078886;28;1090;-43
2023/10/21 05:04:46;;;;;;;;;;;;;;;25.46;37.63;100265.66;5076748;28;1782;-43
2023/10/21 05:07:11;;;;;;;;;;;;;;;25.35;37.47;100268.78;5058505;28;1024;-43
2023/10/21 05:09:37;;;;;;;;;;;;;;;25.48;37.26;100262.78;5072917;28;1003;-43
2023/10/21 05:12:03;;;;;;;;;;;;;;;25.40;37.27;100274.47;5073772;28;1020;-44
2023/10/21 05:14:28;;;;;;;;;;;;;;;25.57;37.01;100280.53;5072815;28;1139;-43
2023/10/21 05:16:54;;;;;;;;;;;;;;;25.54;36.99;100259.38;5077083;28;1051;-42
2023/10/21 05:19:19;;;;;;;;;;;;;;;25.70;36.48;100276.38;5076970;28;1243;-44
2023/10/21 05:21:45;;;;;;;;;;;;;;;25.76;36.96;100292.66;5066159;28;1910;-43
2023/10/21 05:24:10;;;;;;;;;;;;;;;25.82;36.43;100292.94;5068188;28;1218;-44
2023/10/21 05:26:36;;;;;;;;;;;;;;;25.85;36.58;100290.72;5077599;28;1078;-43
2023/10/21 05:29:02;;;;;;;;;;;;;;;25.74;36.81;100297.38;5063814;28;1139;-43
2023/10/21 05:31:28;;;;;;;;;;;;;;;25.79;36.73;100302.25;5058464;28;1067;-41
2023/10/21 05:33:57;;;;;;;;;;;;;;;25.93;36.09;100305.94;5058500;28;1837;-41
2023/10/21 05:36:23;;;;;;;;;;;;;;;25.81;36.33;100310.94;5063434;28;1095;-43
2023/10/21 05:38:49;;;;;;;;;;;;;;;25.70;36.70;100306.03;5077929;28;1028;-44
2023/10/21 05:41:14;;;;;;;;;;;;;;;26.01;36.57;100323.88;5077862;28;1906;-43
2023/10/21 05:43:40;;;;;;;;;;;;;;;25.74;36.69;100318.94;5076562;28;1047;-41
2023/10/21 05:46:06;;;;;;;;;;;;;;;26.21;36.02;100321.44;5048190;28;1357;-43
2023/10/21 05:48:31;;;;;;;;;;;;;;;26.11;35.83;100318.22;5076238;28;991;-44
2023/10/21 05:51:00;;;;;;;;;;;;;;;26.35;35.62;100319.81;5058007;28;1483;-43
2023/10/21 05:53:26;;;;;;;;;;;;;;;26.11;36.13;100324.44;5072182;28;1079;-45
2023/10/21 05:55:53;;;;;;;;;;;;;;;26.39;35.34;100325.66;5065113;28;1075;-43
2023/10/21 05:58:19;;;;;;;;;;;;;;;26.40;35.43;100330.88;5076560;28;1051;-44
2023/10/21 06:00:44;;;;;;;;;;;;;;;26.38;34.56;100340.16;5065281;28;1993;-42
2023/10/21 06:03:10;;;;;;;;;;;;;;;26.96;34.70;100338.53;5063477;28;2386;-43
2023/10/21 06:05:35;;;;;;;;;;;;;;;27.16;34.28;100337.91;5065353;28;1001;-41
2023/10/21 06:08:01;;;;;;;;;;;;;;;27.37;34.16;100343.31;5077215;28;1035;-44
2023/10/21 06:10:26;;;;;;;;;;;;;;;27.30;33.85;100341.56;5077425;28;1110;-45
2023/10/21 06:12:52;;;;;;;;;;;;;;;27.26;34.38;100343.81;5070121;28;999;-47
2023/10/21 06:15:17;;;;;;;;;;;;;;;27.50;33.76;100339.03;5069677;28;1019;-43
2023/10/21 06:17:43;;;;;;;;;;;;;;;27.41;33.66;100342.91;5054353;28;1105;-43
2023/10/21 06:20:08;;;;;;;;;;;;;;;27.61;33.36;100338.50;5057154;28;1969;-43
2023/10/21 06:22:34;;;;;;;;;;;;;;;27.67;33.51;100338.75;5053238;28;1126;-43
2023/10/21 06:24:59;;;;;;;;;;;;;;;27.76;32.88;100334.88;5037131;28;1184;-43
2023/10/21 06:27:25;;;;;;;;;;;;;;;27.81;33.03;100331.59;5037061;28;1200;-42
2023/10/21 06:29:50;;;;;;;;;;;;;;;27.75;33.29;100336.75;5053665;28;1085;-42
2023/10/21 06:32:16;;;;;;;;;;;;;;;27.84;33.08;100332.03;5056727;28;1106;-45
2023/10/21 06:34:41;;;;;;;;;;;;;;;27.94;32.92;100338.97;5056242;28;2419;-43
2023/10/21 06:37:07;;;;;;;;;;;;;;;28.03;32.43;100332.34;5048597;28;997;-44
2023/10/21 06:39:33;;;;;;;;;;;;;;;28.15;32.05;100345.28;5040400;28;1155;-43
2023/10/21 06:41:58;;;;;;;;;;;;;;;28.16;32.25;100344.28;5046309;28;1918;-43
2023/10/21 06:44:25;;;;;;;;;;;;;;;28.18;32.42;100342.19;5050354;28;1068;-43
2023/10/21 06:46:51;;;;;;;;;;;;;;;28.32;32.00;100345.81;5047300;28;1044;-42
2023/10/21 06:49:16;;;;;;;;;;;;;;;28.27;32.03;100356.38;5047831;28;1035;-42
2023/10/21 06:51:42;;;;;;;;;;;;;;;28.41;31.61;100346.50;5039036;28;1184;-45
2023/10/21 06:54:08;;;;;;;;;;;;;;;28.43;31.39;100350.66;5029496;28;1060;-41
2023/10/21 06:56:33;;;;;;;;;;;;;;;28.16;31.13;100346.97;5049569;28;1083;-35
2023/10/21 06:58:59;;;;;;;;;;;;;;;28.46;30.62;100352.16;5036585;28;1099;-43
2023/10/21 07:01:25;;;;;;;;;;;;;;;28.64;30.52;100351.59;5044719;28;1983;-41
2023/10/21 07:03:50;;;;;;;;;;;;;;;28.82;30.50;100347.47;5049262;28;1809;-41
2023/10/21 07:06:18;;;;;;;;;;;;;;;28.90;30.63;100355.41;5036709;28;1088;-42
2023/10/21 07:08:44;;;;;;;;;;;;;;;28.81;30.12;100360.16;5043567;28;1020;-39
2023/10/21 07:11:09;;;;;;;;;;;;;;;28.99;30.01;100357.94;5056390;28;1122;-43
2023/10/21 07:13:35;;;;;;;;;;;;;;;29.06;30.18;100364.22;5054142;28;916;-43
2023/10/21 07:16:07;;;;;;;;;;;;;;;29.12;30.19;100359.84;5042893;28;1119;-40
2023/10/21 07:18:33;;;;;;;;;;;;;;;29.14;29.94;100355.06;5043830;28;1059;-41
2023/10/21 07:20:58;;;;;;;;;;;;;;;29.35;29.29;100345.88;5041433;28;1914;-39
2023/10/21 07:23:24;;;;;;;;;;;;;;;29.27;29.85;100352.34;5044193;28;1202;-42
2023/10/21 07:25:50;;;;;;;;;;;;;;;29.37;29.64;100353.81;5041598;28;996;-41
2023/10/21 07:28:15;;;;;;;;;;;;;;;29.47;29.54;100354.22;5049239;28;1009;-40
2023/10/21 07:30:41;;;;;;;;;;;;;;;29.59;29.41;100354.47;5044554;28;993;-46
2023/10/21 07:33:06;;;;;;;;;;;;;;;29.67;29.10;100350.69;5040327;28;2278;-41
2023/10/21 07:35:32;;;;;;;;;;;;;;;29.73;28.54;100359.88;5044885;28;1055;-44
2023/10/21 07:37:57;;;;;;;;;;;;;;;29.97;28.07;100360.25;5039677;28;1110;-45
2023/10/21 07:40:23;;;;;;;;;;;;;;;30.10;27.86;100351.22;5035018;28;1981;-46
2023/10/21 07:42:49;;;;;;;;;;;;;;;30.12;27.88;100360.00;5035427;28;1219;-47
2023/10/21 07:45:14;;;;;;;;;;;;;;;29.93;28.54;100365.25;5036047;28;1255;-38
2023/10/21 07:47:41;;;;;;;;;;;;;;;30.10;28.03;100333.09;5040451;28;1420;-38
2023/10/21 07:50:10;;;;;;;;;;;;;;;30.26;27.76;100353.50;5038149;28;1480;-40
2023/10/21 07:52:36;;;;;;;;;;;;;;;30.15;27.69;100356.84;5035539;28;1298;-37
2023/10/21 07:55:02;;;;;;;;;;;;;;;30.29;27.19;100361.25;5035633;28;1219;-38
2023/10/21 07:57:28;;;;;;;;;;;;;;;30.44;27.05;100357.41;5035824;28;1196;-38
2023/10/21 07:59:53;;;;;;;;;;;;;;;30.36;27.33;100361.22;5041359;28;1247;-40
2023/10/21 08:02:19;;;;;;;;;;;;;;;30.49;27.04;100362.19;5052421;28;1906;-38
2023/10/21 08:04:44;;;;;;;;;;;;;;;30.65;26.62;100364.41;5043170;28;2286;-34
2023/10/21 08:07:10;;;;;;;;;;;;;;;30.69;26.40;100348.53;5054196;28;1028;-40
2023/10/21 08:09:37;;;;;;;;;;;;;;;30.70;26.16;100357.50;5043381;28;1200;-40
2023/10/21 08:12:03;;;;;;;;;;;;;;;30.77;26.15;100366.44;5054687;28;1072;-38
2023/10/21 08:14:31;;;;;;;;;;;;;;;30.73;26.64;100363.31;5055238;28;860;-40
2023/10/21 08:16:57;;;;;;;;;;;;;;;30.86;26.34;100362.47;5042242;28;1055;-37
2023/10/21 08:19:24;;;;;;;;;;;;;;;30.65;26.51;100364.41;5072687;28;1060;-37
2023/10/21 08:21:50;;;;;;;;;;;;;;;30.86;26.52;100367.91;5068527;28;1973;-38
2023/10/21 08:24:15;;;;;;;;;;;;;;;30.94;26.30;100366.78;5055730;28;968;-36
2023/10/21 08:26:41;;;;;;;;;;;;;;;31.14;25.61;100368.53;5061387;28;1198;-39
2023/10/21 08:29:07;;;;;;;;;;;;;;;31.18;25.21;100377.91;5068346;28;1001;-35
2023/10/21 08:31:32;;;;;;;;;;;;;;;31.22;25.89;100367.44;5075256;28;1087;-36
2023/10/21 08:33:58;;;;;;;;;;;;;;;31.06;25.79;100377.81;5068657;28;1907;-37
2023/10/21 08:36:23;;;;;;;;;;;;;;;31.43;25.15;100370.88;5074936;28;1208;-35
2023/10/21 08:38:50;;;;;;;;;;;;;;;31.06;26.06;100376.97;5073912;28;844;-38
2023/10/21 08:41:16;;;;;;;;;;;;;;;31.16;25.25;100378.13;5074888;28;1973;-39
2023/10/21 08:43:48;;;;;;;;;;;;;;;31.38;25.39;100376.94;5062851;28;1118;-40
2023/10/21 08:46:17;;;;;;;;;;;;;;;31.10;25.86;100381.72;5068808;28;1282;-37
2023/10/21 08:48:45;;;;;;;;;;;;;;;30.86;25.67;100378.75;5068427;28;1107;-41
2023/10/21 08:51:11;;;;;;;;;;;;;;;30.86;25.86;100377.91;5068017;28;906;-38
2023/10/21 08:53:38;;;;;;;;;;;;;;;30.92;25.78;100377.03;5058859;28;1075;-37
2023/10/21 08:56:03;;;;;;;;;;;;;;;30.51;26.59;100379.09;5059069;28;1120;-41
2023/10/21 08:58:29;;;;;;;;;;;;;;;30.67;26.17;100377.78;5058682;28;1114;-39
2023/10/21 09:00:55;;;;;;;;;;;;;;;30.82;26.10;100371.25;5067670;28;1914;-40
2023/10/21 09:03:20;;;;;;;;;;;;;;;30.33;26.90;100371.66;5072830;28;2241;-41
2023/10/21 09:06:01;;;;;;;;;;;;;;;30.12;27.35;100363.56;5066194;28;1156;-41
2023/10/21 09:08:31;;;;;;;;;;;;;;;30.04;27.57;100372.75;5066906;28;1297;-40
2023/10/21 09:11:00;;;;;;;;;;;;;;;30.03;27.48;100372.97;5063806;28;1452;-39
2023/10/21 09:13:29;;;;;;;;;;;;;;;29.94;27.77;100367.78;5073174;28;1070;-39
2023/10/21 09:15:55;;;;;;;;;;;;;;;30.01;27.72;100369.63;5074403;28;1100;-38
2023/10/21 09:18:20;;;;;;;;;;;;;;;29.98;27.65;100360.03;5070637;28;1084;-42
2023/10/21 09:20:49;;;;;;;;;;;;;;;30.10;27.53;100351.22;5066987;28;1905;-38
2023/10/21 09:23:17;;;;;;;;;;;;;;;30.00;27.90;100359.81;5075502;28;1023;-40
2023/10/21 09:25:49;;;;;;;;;;;;;;;30.02;27.79;100358.56;5065593;28;1140;-40
2023/10/21 09:28:22;;;;;;;;;;;;;;;29.89;27.61;100353.19;5072006;28;1128;-38
2023/10/21 09:30:57;;;;;;;;;;;;;;;29.98;27.91;100356.50;5058493;28;1119;-41
2023/10/21 09:33:23;;;;;;;;;;;;;;;29.88;27.96;100349.63;5077596;28;1835;-39
2023/10/21 09:36:01;;;;;;;;;;;;;;;30.18;27.07;100342.84;5078379;28;1051;-37
2023/10/21 09:38:27;;;;;;;;;;;;;;;30.27;26.75;100348.91;5058264;28;1051;-41
2023/10/21 09:40:53;;;;;;;;;;;;;;;30.25;26.77;100346.44;5072076;28;1967;-39
2023/10/21 09:43:18;;;;;;;;;;;;;;;30.54;26.07;100349.66;5077509;28;1023;-42
2023/10/21 09:45:44;;;;;;;;;;;;;;;30.74;25.89;100337.84;5063198;28;1194;-39
2023/10/21 09:48:10;;;;;;;;;;;;;;;30.52;26.75;100340.03;5065942;28;1128;-37
2023/10/21 09:50:36;;;;;;;;;;;;;;;30.41;26.78;100336.97;5071150;28;1026;-37
2023/10/21 09:53:11;;;;;;;;;;;;;;;30.59;26.43;100346.28;5052835;28;1329;-38
2023/10/21 09:55:39;;;;;;;;;;;;;;;30.70;25.83;100344.75;5058420;28;1103;-37
2023/10/21 09:58:06;;;;;;;;;;;;;;;30.91;25.57;100340.88;5040381;28;1426;-40
2023/10/21 10:00:32;;;;;;;;;;;;;;;31.07;25.04;100337.88;5053192;28;1965;-40
2023/10/21 10:02:57;;;;;;;;;;;;;;;30.97;25.16;100327.50;5039165;28;1043;-41
2023/10/21 10:05:23;;;;;;;;;;;;;;;30.85;25.70;100335.50;5062914;28;1741;-40
2023/10/21 10:07:48;;;;;;;;;;;;;;;31.13;24.89;100335.09;5065016;28;1004;-40
2023/10/21 10:10:15;;;;;;;;;;;;;;;30.89;25.47;100328.59;5063008;28;1047;-40
2023/10/21 10:12:40;;;;;;;;;;;;;;;31.25;24.44;100324.34;5077197;28;1448;-38
2023/10/21 10:15:24;;;;;;;;;;;;;;;31.14;25.00;100320.47;5062596;28;1242;-39
2023/10/21 10:17:50;;;;;;;;;;;;;;;31.22;24.47;100330.22;5070380;28;1129;-37
2023/10/21 10:20:19;;;;;;;;;;;;;;;31.03;25.08;100316.56;5065521;28;1906;-39
2023/10/21 10:22:47;;;;;;;;;;;;;;;30.95;25.05;100324.19;5076552;28;1016;-35
2023/10/21 10:25:15;;;;;;;;;;;;;;;31.11;24.65;100320.09;5076424;28;1015;-40
2023/10/21 10:27:41;;;;;;;;;;;;;;;31.24;24.58;100324.56;5074879;28;1003;-38
2023/10/21 10:30:14;;;;;;;;;;;;;;;31.19;24.40;100324.41;5067208;28;1103;-33
2023/10/21 10:32:43;;;;;;;;;;;;;;;31.11;24.55;100325.53;5070198;28;987;-39
2023/10/21 10:35:08;;;;;;;;;;;;;;;31.32;24.38;100327.00;5045787;28;2564;-40
2023/10/21 10:37:34;;;;;;;;;;;;;;;31.31;23.59;100319.94;5061050;28;1047;-38
2023/10/21 10:40:05;;;;;;;;;;;;;;;31.00;25.43;100311.59;5071551;28;883;-34
2023/10/21 10:42:31;;;;;;;;;;;;;;;30.88;25.37;100313.38;5058667;28;1229;-38
2023/10/21 10:44:56;;;;;;;;;;;;;;;30.95;25.10;100316.03;5050486;28;1333;-35
2023/10/21 10:47:26;;;;;;;;;;;;;;;31.32;23.58;100309.88;5058733;28;1034;-37
2023/10/21 10:49:56;;;;;;;;;;;;;;;31.37;24.13;100313.59;5057001;28;1098;-42
2023/10/21 10:52:25;;;;;;;;;;;;;;;31.13;24.41;100320.72;5074458;28;1119;-39
2023/10/21 10:54:50;;;;;;;;;;;;;;;30.78;24.55;100309.19;5057321;28;1471;-43
2023/10/21 10:57:16;;;;;;;;;;;;;;;24.61;33.97;100304.13;5056325;28;1066;-42
2023/10/21 10:59:42;;;;;;;;;;;;;;;22.42;39.71;100281.31;5056489;28;1193;-43
2023/10/21 11:02:13;;;;;;;;;;;;;;;22.66;39.44;100290.44;5055783;28;1988;-43
2023/10/21 11:04:45;;;;;;;;;;;;;;;22.91;39.05;100294.03;5060341;28;1800;-44
2023/10/21 11:07:11;;;;;;;;;;;;;;;22.94;39.17;100291.00;5041040;28;1219;-43
2023/10/21 11:09:36;;;;;;;;;;;;;;;22.81;39.62;100296.84;5056275;28;1203;-38
2023/10/21 11:12:02;;;;;;;;;;;;;;;22.78;39.99;100290.97;5056576;28;1111;-39
2023/10/21 11:14:27;;;;;;;;;;;;;;;23.17;39.46;100290.34;5066049;28;1087;-38
2023/10/21 11:16:53;;;;;;;;;;;;;;;26.79;32.67;100292.91;5060917;28;1066;-36
2023/10/21 11:19:18;;;;;;;;;;;;;;;23.62;37.80;100291.88;5046568;28;1219;-36
2023/10/21 11:21:50;;;;;;;;;;;;;;;22.14;41.81;100293.09;5055947;28;1906;-37
2023/10/21 11:24:15;;;;;;;;;;;;;;;26.39;33.90;100288.72;5056472;28;1136;-39
2023/10/21 11:26:41;;;;;;;;;;;;;;;24.21;37.18;100285.31;5055331;28;1086;-38
2023/10/21 11:29:06;;;;;;;;;;;;;;;22.78;40.67;100286.47;5058517;28;1290;-37
2023/10/21 11:31:33;;;;;;;;;;;;;;;22.36;41.78;100280.97;5056084;28;1158;-38
2023/10/21 11:34:14;;;;;;;;;;;;;;;22.31;41.94;100280.63;5060673;28;1761;-37
2023/10/21 11:36:40;;;;;;;;;;;;;;;22.25;42.11;100281.25;5055411;28;1258;-39
2023/10/21 11:39:13;;;;;;;;;;;;;;;22.18;42.35;100280.22;5064962;28;1203;-39
2023/10/21 11:42:05;;;;;;;;;;;;;;;26.22;34.11;100281.84;5068422;28;1910;-37
2023/10/21 11:44:30;;;;;;;;;;;;;;;23.28;39.65;100274.91;5064471;28;1281;-36
2023/10/21 11:46:56;;;;;;;;;;;;;;;24.13;38.51;100278.13;5075060;28;1064;-37
2023/10/21 11:49:23;;;;;;;;;;;;;;;27.42;32.25;100279.75;5072349;28;983;-38
2023/10/21 11:51:49;;;;;;;;;;;;;;;22.80;40.91;100273.75;5065407;28;1058;-38
2023/10/21 11:57:41;;;;;;;;;;;;;;;25.12;35.37;100283.13;5019915;28;1301;-39
2023/10/21 12:11:09;;;;;;;;;;;;;;;23.07;40.05;100261.00;5046804;28;1261;-35
2023/10/21 12:40:29;;;;;;;;;;;;;;;25.68;34.85;100269.34;5067000;28;1179;-39
2023/10/21 12:42:45;;;;;;;;;;;;;;;24.94;35.79;100274.34;5076921;28;1503;-39
2023/10/21 12:45:20;;;;;;;;;;;;;;;22.35;41.01;100271.25;5076702;28;1306;-39
2023/10/21 12:47:48;;;;;;;;;;;;;;;25.27;34.97;100270.56;5077262;28;1171;-39
2023/10/21 12:50:14;;;;;;;;;;;;;;;25.35;33.99;100269.63;5073010;28;1062;-41
2023/10/21 12:52:43;;;;;;;;;;;;;;;22.33;40.39;100275.94;5057754;28;1318;-36
2023/10/21 12:55:11;;;;;;;;;;;;;;;24.37;36.50;100272.84;5059129;28;1014;-36
2023/10/21 12:57:37;;;;;;;;;;;;;;;26.03;32.30;100276.00;5063638;28;1223;-36
2023/10/21 13:00:05;;;;;;;;;;;;;;;22.33;39.89;100277.78;5076791;28;1332;-36
2023/10/21 13:02:35;;;;;;;;;;;;;;;24.20;36.04;100254.09;5064101;28;1909;-38
2023/10/21 13:05:05;;;;;;;;;;;;;;;25.58;32.87;100268.72;5059992;28;1857;-37
2023/10/21 13:07:33;;;;;;;;;;;;;;;22.16;39.83;100271.50;5058393;28;1293;-35
2023/10/21 13:09:59;;;;;;;;;;;;;;;24.20;36.11;100270.22;5057931;28;1323;-37
2023/10/21 13:12:25;;;;;;;;;;;;;;;25.94;31.97;100274.44;5072101;28;1175;-37
2023/10/21 13:14:52;;;;;;;;;;;;;;;22.41;39.02;100266.22;5064412;28;1008;-37
2023/10/21 13:17:18;;;;;;;;;;;;;;;23.94;36.42;100271.31;5057562;28;1045;-40
2023/10/21 13:19:43;;;;;;;;;;;;;;;26.25;32.00;100273.38;5073207;28;1071;-37
2023/10/21 13:22:09;;;;;;;;;;;;;;;27.23;29.76;100261.34;5062736;28;1906;-38
2023/10/21 13:24:34;;;;;;;;;;;;;;;27.56;28.74;100267.19;5058398;28;1043;-38